createdAt,value
2018-03-20T00:00:34.386Z,51.73
2018-03-20T00:03:02.542Z,50.34
2018-03-20T00:05:30.671Z,50.12
2018-03-20T00:07:58.835Z,51.95
2018-03-20T00:10:26.977Z,52.84
2018-03-20T00:12:55.117Z,54.87
2018-03-20T00:15:23.273Z,52.88
2018-03-20T00:17:51.404Z,52.42
2018-03-20T00:20:19.531Z,53.37
2018-03-20T00:22:47.662Z,54.91
2018-03-20T00:25:15.832Z,53.58
2018-03-20T00:27:43.968Z,53.15
2018-03-20T00:30:12.115Z,54.38
2018-03-20T00:32:40.262Z,55.41
2018-03-20T00:35:08.398Z,54.62
2018-03-20T00:37:36.586Z,53.66
2018-03-20T00:40:04.731Z,54.70
2018-03-20T00:42:32.854Z,55.05
2018-03-20T00:45:01.019Z,55.48
2018-03-20T00:47:29.139Z,55.55
2018-03-20T00:49:57.274Z,56.64
2018-03-20T00:52:25.412Z,57.36
2018-03-20T00:54:53.578Z,56.47
2018-03-20T00:57:21.732Z,56.34
2018-03-20T00:59:49.876Z,57.40
2018-03-20T01:02:18.027Z,58.00
2018-03-20T01:04:46.170Z,56.21
2018-03-20T01:07:14.383Z,56.51
2018-03-20T01:09:42.496Z,56.61
2018-03-20T01:12:10.632Z,55.97
2018-03-20T01:14:38.765Z,54.89
2018-03-20T01:17:06.913Z,55.74
2018-03-20T01:19:35.065Z,56.17
2018-03-20T01:22:03.197Z,56.72
2018-03-20T01:24:31.366Z,58.60
2018-03-20T01:26:59.501Z,57.99
2018-03-20T01:29:27.651Z,56.68
2018-03-20T01:31:55.788Z,57.79
2018-03-20T01:34:23.948Z,57.28
2018-03-20T01:36:52.066Z,57.27
2018-03-20T01:39:20.241Z,56.10
2018-03-20T01:41:48.388Z,57.53
2018-03-20T01:44:16.535Z,57.01
2018-03-20T01:46:44.667Z,57.34
2018-03-20T01:49:12.858Z,57.12
2018-03-20T01:51:41.043Z,57.63
2018-03-20T01:54:09.178Z,58.05
2018-03-20T01:56:37.351Z,57.65
2018-03-20T01:59:05.503Z,59.28
2018-03-20T02:01:33.637Z,58.00
2018-03-20T02:04:01.775Z,56.59
2018-03-20T02:06:29.931Z,57.15
2018-03-20T02:08:58.077Z,59.42
2018-03-20T02:11:26.222Z,58.93
2018-03-20T02:13:54.391Z,57.05
2018-03-20T02:16:22.520Z,56.88
2018-03-20T02:18:50.669Z,58.23
2018-03-20T02:21:18.808Z,57.24
2018-03-20T02:23:50.542Z,57.19
2018-03-20T02:26:18.708Z,57.32
2018-03-20T02:28:46.828Z,57.72
2018-03-20T02:31:14.978Z,58.03
2018-03-20T02:33:43.110Z,58.23
2018-03-20T02:36:11.335Z,59.33
2018-03-20T02:38:39.465Z,59.59
2018-03-20T02:41:07.605Z,59.01
2018-03-20T02:43:35.750Z,59.36
2018-03-20T02:46:03.890Z,59.66
2018-03-20T02:48:32.055Z,58.85
2018-03-20T02:51:00.215Z,59.00
2018-03-20T02:53:28.354Z,58.51
2018-03-20T02:55:56.495Z,58.12
2018-03-20T02:58:24.633Z,58.11
2018-03-20T03:00:53.152Z,58.06
2018-03-20T03:03:21.262Z,58.48
2018-03-20T03:05:49.396Z,57.72
2018-03-20T03:08:17.546Z,58.60
2018-03-20T03:10:45.683Z,56.94
2018-03-20T03:13:13.821Z,57.20
2018-03-20T03:15:41.958Z,57.60
2018-03-20T03:18:10.123Z,59.65
2018-03-20T03:20:38.278Z,61.10
2018-03-20T03:23:06.438Z,62.71
2018-03-20T03:25:34.560Z,64.63
2018-03-20T03:28:02.701Z,65.31
2018-03-20T03:30:30.834Z,64.24
2018-03-20T03:32:58.976Z,64.20
2018-03-20T03:35:27.114Z,63.58
2018-03-20T03:37:55.250Z,64.73
2018-03-20T03:40:23.414Z,64.32
2018-03-20T03:42:51.561Z,65.11
2018-03-20T03:45:19.737Z,65.40
2018-03-20T03:47:47.852Z,65.45
2018-03-20T03:50:15.997Z,65.75
2018-03-20T03:52:44.128Z,65.74
2018-03-20T03:55:12.288Z,65.20
2018-03-20T03:57:40.452Z,65.98
2018-03-20T04:00:08.564Z,65.60
2018-03-20T04:02:36.784Z,65.13
2018-03-20T04:05:04.930Z,66.99
2018-03-20T04:07:33.089Z,68.55
2018-03-20T04:10:01.207Z,68.92
2018-03-20T04:12:29.391Z,70.90
2018-03-20T04:14:57.518Z,72.07
2018-03-20T04:17:25.639Z,72.29
2018-03-20T04:19:53.767Z,74.24
2018-03-20T04:22:21.887Z,73.66
2018-03-20T04:24:50.060Z,75.25
2018-03-20T04:27:18.218Z,75.44
2018-03-20T04:29:46.365Z,75.87
2018-03-20T04:32:14.498Z,77.08
2018-03-20T04:34:42.636Z,76.51
2018-03-20T04:37:10.770Z,77.45
2018-03-20T04:39:38.883Z,76.79
2018-03-20T04:42:07.043Z,77.17
2018-03-20T04:44:35.168Z,77.58
2018-03-20T04:47:03.319Z,77.34
2018-03-20T04:49:34.601Z,77.72
2018-03-20T04:52:06.434Z,77.44
2018-03-20T04:54:34.560Z,77.91
2018-03-20T04:57:02.681Z,78.87
2018-03-20T04:59:30.849Z,78.49
2018-03-20T05:01:59.035Z,79.56
2018-03-20T05:04:27.172Z,79.55
2018-03-20T05:06:55.315Z,79.45
2018-03-20T05:09:24.092Z,78.92
2018-03-20T05:11:55.894Z,79.63
2018-03-20T05:14:24.114Z,79.49
2018-03-20T05:16:52.262Z,79.78
2018-03-20T05:22:44.869Z,80.40
2018-03-20T05:25:13.024Z,80.79
2018-03-20T05:27:41.164Z,80.54
2018-03-20T05:30:09.319Z,80.64
2018-03-20T05:32:37.494Z,81.07
2018-03-20T05:35:05.625Z,81.16
2018-03-20T05:37:33.780Z,81.69
2018-03-20T05:40:02.021Z,81.52
2018-03-20T05:42:30.195Z,82.53
2018-03-20T05:44:58.332Z,82.73
2018-03-20T05:47:38.328Z,82.21
2018-03-20T05:53:08.433Z,82.12
2018-03-20T05:55:36.566Z,82.59
2018-03-20T05:58:04.734Z,83.65
2018-03-20T06:00:32.865Z,83.43
2018-03-20T06:03:01.019Z,82.73
2018-03-20T06:05:29.159Z,83.16
2018-03-20T06:07:57.305Z,83.62
2018-03-20T06:10:25.449Z,83.59
2018-03-20T06:12:53.635Z,83.59
2018-03-20T06:15:21.798Z,83.58
2018-03-20T06:17:49.944Z,83.63
2018-03-20T06:20:18.099Z,83.18
2018-03-20T06:22:46.280Z,83.95
2018-03-20T06:25:14.440Z,83.99
2018-03-20T06:27:42.599Z,83.52
2018-03-20T06:30:10.742Z,83.81
2018-03-20T06:32:38.892Z,84.09
2018-03-20T06:35:07.024Z,84.88
2018-03-20T06:37:35.184Z,84.10
2018-03-20T06:40:03.328Z,85.74
2018-03-20T06:42:31.493Z,83.17
2018-03-20T06:44:59.685Z,83.15
2018-03-20T06:47:27.913Z,83.45
2018-03-20T06:49:56.085Z,83.17
2018-03-20T06:52:24.453Z,83.35
2018-03-20T06:54:52.594Z,84.18
2018-03-20T06:57:20.742Z,83.51
2018-03-20T06:59:49.023Z,83.52
2018-03-20T07:02:17.458Z,84.31
2018-03-20T07:04:46.667Z,84.39
2018-03-20T07:07:15.112Z,84.32
2018-03-20T07:09:43.248Z,83.49
2018-03-20T07:12:11.434Z,84.14
2018-03-20T07:14:39.602Z,83.62
2018-03-20T07:17:07.779Z,82.50
2018-03-20T07:19:35.928Z,82.20
2018-03-20T07:22:04.074Z,82.72
2018-03-20T07:24:32.242Z,82.78
2018-03-20T07:27:00.382Z,83.01
2018-03-20T07:29:28.519Z,83.74
2018-03-20T07:31:56.688Z,84.18
2018-03-20T07:34:24.889Z,84.76
2018-03-20T07:36:52.993Z,86.32
2018-03-20T07:39:21.157Z,86.89
2018-03-20T07:41:49.300Z,88.72
2018-03-20T07:44:17.442Z,84.13
2018-03-20T07:46:45.587Z,86.51
2018-03-20T07:49:13.718Z,86.90
2018-03-20T07:51:41.872Z,86.51
2018-03-20T07:54:10.029Z,85.81
2018-03-20T07:56:38.158Z,84.67
2018-03-20T07:59:06.327Z,83.92
2018-03-20T08:01:34.486Z,84.50
2018-03-20T08:04:02.598Z,84.68
2018-03-20T08:06:30.769Z,85.40
2018-03-20T08:08:58.911Z,84.54
2018-03-20T08:11:27.077Z,85.10
2018-03-20T08:13:55.231Z,84.34
2018-03-20T08:16:23.411Z,83.97
2018-03-20T08:18:51.587Z,83.48
2018-03-20T08:21:19.732Z,82.89
2018-03-20T08:23:47.869Z,83.10
2018-03-20T08:26:16.005Z,83.01
2018-03-20T08:28:44.155Z,82.26
2018-03-20T08:31:12.277Z,81.61
2018-03-20T08:33:40.395Z,81.01
2018-03-20T08:36:08.555Z,81.01
2018-03-20T08:38:36.738Z,79.40
2018-03-20T08:41:04.877Z,78.54
2018-03-20T08:43:33.013Z,78.11
2018-03-20T08:46:01.166Z,77.32
2018-03-20T08:48:29.303Z,76.94
2018-03-20T08:50:57.465Z,75.67
2018-03-20T08:53:25.597Z,74.64
2018-03-20T08:55:53.718Z,73.42
2018-03-20T08:58:21.858Z,74.02
2018-03-20T09:00:50.000Z,72.85
2018-03-20T09:03:18.165Z,71.93
2018-03-20T09:05:46.302Z,69.62
2018-03-20T09:08:14.426Z,69.43
2018-03-20T09:10:42.575Z,69.44
2018-03-20T09:13:10.767Z,69.92
2018-03-20T09:15:39.066Z,68.92
2018-03-20T09:18:07.193Z,67.86
2018-03-20T09:20:35.341Z,67.82
2018-03-20T09:23:03.469Z,65.28
2018-03-20T09:25:31.639Z,64.64
2018-03-20T09:27:59.802Z,62.93
2018-03-20T09:30:27.949Z,61.09
2018-03-20T09:32:56.108Z,60.83
2018-03-20T09:35:24.276Z,59.93
2018-03-20T09:37:52.576Z,60.29
2018-03-20T09:40:20.735Z,57.08
2018-03-20T09:42:48.883Z,56.81
2018-03-20T09:45:17.037Z,56.48
2018-03-20T09:47:45.178Z,55.97
2018-03-20T09:50:13.341Z,56.08
2018-03-20T09:52:42.535Z,55.07
2018-03-20T09:55:10.677Z,53.79
2018-03-20T09:57:38.912Z,53.82
2018-03-20T10:00:07.064Z,53.67
2018-03-20T10:02:35.196Z,53.41
2018-03-20T10:05:03.333Z,51.16
2018-03-20T10:07:31.452Z,52.17
2018-03-20T10:09:59.618Z,50.14
2018-03-20T10:12:27.769Z,49.08
2018-03-20T10:14:55.935Z,49.51
2018-03-20T10:17:24.053Z,47.58
2018-03-20T10:19:52.176Z,48.50
2018-03-20T10:22:20.320Z,48.22
2018-03-20T10:24:48.456Z,48.71
2018-03-20T10:27:16.611Z,48.77
2018-03-20T10:29:44.743Z,48.42
2018-03-20T10:32:12.892Z,47.26
2018-03-20T10:34:41.034Z,45.44
2018-03-20T10:37:09.197Z,45.53
2018-03-20T10:39:37.353Z,44.13
2018-03-20T10:42:05.477Z,44.14
2018-03-20T10:44:33.638Z,43.54
2018-03-20T10:47:02.730Z,43.65
2018-03-20T10:49:30.865Z,43.45
2018-03-20T10:51:59.023Z,42.39
2018-03-20T10:54:27.164Z,42.43
2018-03-20T10:56:55.322Z,41.69
2018-03-20T10:59:23.460Z,40.84
2018-03-20T11:01:51.624Z,41.11
2018-03-20T11:04:19.760Z,40.26
2018-03-20T11:06:47.906Z,41.13
2018-03-20T11:09:16.038Z,41.05
2018-03-20T11:11:44.161Z,39.33
2018-03-20T11:14:12.305Z,39.15
2018-03-20T11:16:40.465Z,38.47
2018-03-20T11:19:08.586Z,38.02
2018-03-20T11:21:36.727Z,37.43
2018-03-20T11:24:04.882Z,37.78
2018-03-20T11:26:33.002Z,36.94
2018-03-20T11:29:01.143Z,37.92
2018-03-20T11:31:29.359Z,38.02
2018-03-20T11:33:57.529Z,37.88
2018-03-20T11:36:25.669Z,36.01
2018-03-20T11:38:53.795Z,34.84
2018-03-20T11:41:21.923Z,33.56
2018-03-20T11:43:50.095Z,33.64
2018-03-20T11:46:18.193Z,32.98
2018-03-20T11:48:46.342Z,33.60
2018-03-20T11:51:14.495Z,32.24
2018-03-20T11:53:42.663Z,32.30
2018-03-20T11:56:10.822Z,32.24
2018-03-20T11:58:38.986Z,32.36
2018-03-20T12:01:07.137Z,31.34
2018-03-20T12:03:35.262Z,31.88
2018-03-20T12:06:03.439Z,31.23
2018-03-20T12:08:43.521Z,30.21
2018-03-20T12:11:11.677Z,29.89
2018-03-20T12:13:39.829Z,29.49
2018-03-20T12:16:07.988Z,30.80
2018-03-20T12:18:36.140Z,29.37
2018-03-20T12:21:04.301Z,29.00
2018-03-20T12:23:32.445Z,30.10
2018-03-20T12:26:00.577Z,29.09
2018-03-20T12:28:28.748Z,30.79
2018-03-20T12:30:56.906Z,30.47
2018-03-20T12:33:25.059Z,30.49
2018-03-20T12:35:53.326Z,28.97
2018-03-20T12:38:21.456Z,28.48
2018-03-20T12:40:50.524Z,28.16
2018-03-20T12:43:18.644Z,28.03
2018-03-20T12:45:46.796Z,28.21
2018-03-20T12:48:14.915Z,28.56
2018-03-20T12:50:43.068Z,27.68
2018-03-20T12:53:11.205Z,27.42
2018-03-20T12:55:39.448Z,27.87
2018-03-20T12:58:07.565Z,29.03
2018-03-20T13:00:35.732Z,30.00
2018-03-20T13:03:03.860Z,30.02
2018-03-20T13:05:32.003Z,30.18
2018-03-20T13:08:00.162Z,29.83
2018-03-20T13:10:28.303Z,28.51
2018-03-20T13:12:56.439Z,27.55
2018-03-20T13:15:24.589Z,28.25
2018-03-20T13:17:52.747Z,27.78
2018-03-20T13:20:21.056Z,28.75
2018-03-20T13:22:49.181Z,29.04
2018-03-20T13:25:17.320Z,29.29
2018-03-20T13:27:45.462Z,29.36
2018-03-20T13:30:13.610Z,29.58
2018-03-20T13:32:41.754Z,30.71
2018-03-20T13:35:09.913Z,31.02
2018-03-20T13:37:38.091Z,31.81
2018-03-20T13:40:06.276Z,32.29
2018-03-20T13:42:34.441Z,31.33
2018-03-20T13:45:02.583Z,31.66
2018-03-20T13:47:30.696Z,32.02
2018-03-20T13:49:58.866Z,32.02
2018-03-20T13:52:27.013Z,32.21
2018-03-20T13:54:55.179Z,30.40
2018-03-20T13:57:23.330Z,29.30
2018-03-20T13:59:51.474Z,29.06
2018-03-20T14:02:19.624Z,29.82
2018-03-20T14:04:47.765Z,30.16
2018-03-20T14:07:15.902Z,30.46
2018-03-20T14:09:44.052Z,31.55
2018-03-20T14:12:12.216Z,31.48
2018-03-20T14:14:40.390Z,31.54
2018-03-20T14:17:08.492Z,31.72
2018-03-20T14:19:36.652Z,31.78
2018-03-20T14:22:04.801Z,31.66
2018-03-20T14:24:32.941Z,31.39
2018-03-20T14:27:01.088Z,31.40
2018-03-20T14:29:29.252Z,30.88
2018-03-20T14:31:57.393Z,31.72
2018-03-20T14:34:25.542Z,32.17
2018-03-20T14:36:53.709Z,32.33
2018-03-20T14:39:22.328Z,32.46
2018-03-20T14:41:50.493Z,32.03
2018-03-20T14:44:18.652Z,31.93
2018-03-20T14:46:46.804Z,31.96
2018-03-20T14:49:14.938Z,32.34
2018-03-20T14:51:43.090Z,31.98
2018-03-20T14:54:11.236Z,31.34
2018-03-20T14:56:39.370Z,31.29
2018-03-20T14:59:07.515Z,30.54
2018-03-20T15:01:35.650Z,30.81
2018-03-20T15:04:03.968Z,31.27
2018-03-20T15:06:32.426Z,31.70
2018-03-20T15:09:00.830Z,31.19
2018-03-20T15:11:29.089Z,30.75
2018-03-20T15:13:57.232Z,31.82
2018-03-20T15:16:25.366Z,31.05
2018-03-20T15:18:53.529Z,30.72
2018-03-20T15:21:21.668Z,31.18
2018-03-20T15:23:49.838Z,30.89
2018-03-20T15:26:18.208Z,29.97
2018-03-20T15:28:46.767Z,29.83
2018-03-20T15:31:14.916Z,29.11
2018-03-20T15:33:43.060Z,29.38
2018-03-20T15:36:11.220Z,29.62
2018-03-20T15:38:39.372Z,31.43
2018-03-20T15:41:10.685Z,31.83
2018-03-20T15:43:38.863Z,31.75
2018-03-20T15:46:06.980Z,31.83
2018-03-20T15:48:35.122Z,32.30
2018-03-20T15:51:03.291Z,32.45
2018-03-20T15:53:31.430Z,32.97
2018-03-20T15:55:59.562Z,33.28
2018-03-20T15:58:27.686Z,33.47
2018-03-20T16:00:55.829Z,33.37
2018-03-20T16:03:23.967Z,33.42
2018-03-20T16:05:52.107Z,33.51
2018-03-20T16:08:20.232Z,33.32
2018-03-20T16:10:48.494Z,34.06
2018-03-20T16:13:16.645Z,34.98
2018-03-20T16:15:44.779Z,33.96
2018-03-20T16:18:12.955Z,33.99
2018-03-20T16:20:41.158Z,33.79
2018-03-20T16:23:09.329Z,34.34
2018-03-20T16:25:37.451Z,34.46
2018-03-20T16:28:05.610Z,34.68
2018-03-20T16:30:33.744Z,34.36
2018-03-20T16:33:01.974Z,34.35
2018-03-20T16:35:30.102Z,34.72
2018-03-20T16:37:58.321Z,34.58
2018-03-20T16:40:26.468Z,34.49
2018-03-20T16:42:54.588Z,34.45
2018-03-20T16:45:22.739Z,34.62
2018-03-20T16:47:50.882Z,35.35
2018-03-20T16:50:19.049Z,34.91
2018-03-20T16:52:47.348Z,34.89
2018-03-20T16:55:16.582Z,35.07
2018-03-20T16:57:44.884Z,34.94
2018-03-20T17:00:13.391Z,34.93
2018-03-20T17:02:41.614Z,35.28
2018-03-20T17:05:09.742Z,34.84
2018-03-20T17:07:38.068Z,35.34
2018-03-20T17:10:06.206Z,34.33
2018-03-20T17:12:34.744Z,34.69
2018-03-20T17:15:02.983Z,34.76
2018-03-20T17:17:31.189Z,34.67
2018-03-20T17:20:01.112Z,34.42
2018-03-20T17:22:29.351Z,34.77
2018-03-20T17:24:57.594Z,35.01
2018-03-20T17:27:25.756Z,35.20
2018-03-20T17:29:53.891Z,36.13
2018-03-20T17:32:22.042Z,35.65
2018-03-20T17:34:50.196Z,35.43
2018-03-20T17:37:18.326Z,35.71
2018-03-20T17:39:46.460Z,35.85
2018-03-20T17:42:14.606Z,36.25
2018-03-20T17:44:42.793Z,36.03
2018-03-20T17:47:10.957Z,36.21
2018-03-20T17:49:39.085Z,36.38
2018-03-20T17:52:07.237Z,36.56
2018-03-20T17:54:35.369Z,36.72
2018-03-20T17:57:03.504Z,36.65
2018-03-20T17:59:31.640Z,36.94
2018-03-20T18:01:59.775Z,36.84
2018-03-20T18:04:27.939Z,37.03
2018-03-20T18:06:56.051Z,37.13
2018-03-20T18:09:24.226Z,37.37
2018-03-20T18:11:52.450Z,37.73
2018-03-20T18:14:20.607Z,38.10
2018-03-20T18:16:48.737Z,38.27
2018-03-20T18:19:16.884Z,38.20
2018-03-20T18:21:45.198Z,39.33
2018-03-20T18:24:14.293Z,38.71
2018-03-20T18:26:42.498Z,38.83
2018-03-20T18:29:10.618Z,38.97
2018-03-20T18:31:38.793Z,39.44
2018-03-20T18:34:06.920Z,39.45
2018-03-20T18:36:35.051Z,39.37
2018-03-20T18:39:03.195Z,39.66
2018-03-20T18:41:31.471Z,39.83
2018-03-20T18:43:59.600Z,40.21
2018-03-20T18:46:27.747Z,40.57
2018-03-20T18:48:55.886Z,40.65
2018-03-20T18:51:24.028Z,40.64
2018-03-20T18:53:52.151Z,41.12
2018-03-20T18:56:20.295Z,41.26
2018-03-20T18:58:48.510Z,41.49
2018-03-20T19:01:16.667Z,41.87
2018-03-20T19:03:44.807Z,42.45
2018-03-20T19:06:12.929Z,42.65
2018-03-20T19:08:41.056Z,43.08
2018-03-20T19:11:09.213Z,43.20
2018-03-20T19:13:37.358Z,43.70
2018-03-20T19:16:05.507Z,43.69
2018-03-20T19:18:33.653Z,44.34
2018-03-20T19:21:01.787Z,45.30
2018-03-20T19:23:29.930Z,45.61
2018-03-20T19:25:58.057Z,45.84
2018-03-20T19:28:26.202Z,46.53
2018-03-20T19:30:55.279Z,46.39
2018-03-20T19:33:23.420Z,47.10
2018-03-20T19:35:51.564Z,47.14
2018-03-20T19:38:19.699Z,46.89
2018-03-20T19:40:48.013Z,47.21
2018-03-20T19:43:16.138Z,47.64
2018-03-20T19:45:44.309Z,48.00
2018-03-20T19:48:12.420Z,48.44
2018-03-20T19:50:40.600Z,48.77
2018-03-20T19:53:10.730Z,48.77
2018-03-20T19:55:39.029Z,48.58
2018-03-20T19:58:07.167Z,49.09
2018-03-20T20:00:35.315Z,49.11
2018-03-20T20:03:06.355Z,49.39
2018-03-20T20:05:34.496Z,49.14
2018-03-20T20:08:02.637Z,49.33
2018-03-20T20:10:30.787Z,49.82
2018-03-20T20:12:58.917Z,49.87
2018-03-20T20:15:27.039Z,50.41
2018-03-20T20:17:55.155Z,50.26
2018-03-20T20:20:23.332Z,50.41
2018-03-20T20:22:51.484Z,50.35
2018-03-20T20:25:19.629Z,51.03
2018-03-20T20:27:47.813Z,51.44
2018-03-20T20:30:16.211Z,52.04
2018-03-20T20:32:44.594Z,52.04
2018-03-20T20:35:12.992Z,52.41
2018-03-20T20:37:41.244Z,52.50
2018-03-20T20:40:09.364Z,52.59
2018-03-20T20:42:37.554Z,52.84
2018-03-20T20:45:05.800Z,53.11
2018-03-20T20:47:34.030Z,53.63
2018-03-20T20:50:02.393Z,53.71
2018-03-20T20:52:30.674Z,53.21
2018-03-20T20:54:59.059Z,53.44
2018-03-20T20:57:30.833Z,53.01
2018-03-20T20:59:58.951Z,53.51
2018-03-20T21:02:27.136Z,53.34
2018-03-20T21:04:55.304Z,52.98
2018-03-20T21:07:23.627Z,52.72
2018-03-20T21:09:51.866Z,52.85
2018-03-20T21:12:20.114Z,52.54
2018-03-20T21:14:48.309Z,52.44
2018-03-20T21:17:16.988Z,52.79
2018-03-20T21:19:45.131Z,52.66
2018-03-20T21:22:13.525Z,52.58
2018-03-20T21:24:41.667Z,52.09
2018-03-20T21:27:09.974Z,52.19
2018-03-20T21:29:38.349Z,52.53
2018-03-20T21:32:06.766Z,52.32
2018-03-20T21:34:35.108Z,52.13
2018-03-20T21:37:03.690Z,52.15
2018-03-20T21:39:31.835Z,53.47
2018-03-20T21:42:00.143Z,53.65
2018-03-20T21:44:28.301Z,53.06
2018-03-20T21:46:56.802Z,54.36
2018-03-20T21:49:25.020Z,55.20
2018-03-20T21:51:53.349Z,55.35
2018-03-20T21:54:21.734Z,55.10
2018-03-20T21:56:49.887Z,55.06
2018-03-20T21:59:18.151Z,55.10
2018-03-20T22:01:46.549Z,55.32
2018-03-20T22:04:15.039Z,56.58
2018-03-20T22:06:43.523Z,57.08
2018-03-20T22:09:11.706Z,57.08
2018-03-20T22:11:40.027Z,57.68
2018-03-20T22:14:08.177Z,57.78
2018-03-20T22:16:36.523Z,57.75
2018-03-20T22:19:04.647Z,57.56
2018-03-20T22:21:32.918Z,58.92
2018-03-20T22:24:01.084Z,59.13
2018-03-20T22:26:29.455Z,58.23
2018-03-20T22:28:57.596Z,58.39
2018-03-20T22:31:25.873Z,58.18
2018-03-20T22:33:54.221Z,58.46
2018-03-20T22:36:22.636Z,58.37
2018-03-20T22:38:51.298Z,59.35
2018-03-20T22:41:19.790Z,59.27
2018-03-20T22:43:47.910Z,59.51
2018-03-20T22:46:16.354Z,59.81
2018-03-20T22:48:44.631Z,60.83
2018-03-20T22:51:12.906Z,60.51
2018-03-20T22:53:41.084Z,61.37
2018-03-20T22:56:09.254Z,60.65
2018-03-20T22:58:37.786Z,61.47
2018-03-20T23:01:06.085Z,61.57
2018-03-20T23:03:34.392Z,60.54
2018-03-20T23:06:02.768Z,61.65
2018-03-20T23:08:30.981Z,61.69
2018-03-20T23:10:59.320Z,61.99
2018-03-20T23:13:27.801Z,62.02
2018-03-20T23:15:56.238Z,62.44
2018-03-20T23:18:24.664Z,62.24
2018-03-20T23:20:53.412Z,61.77
2018-03-20T23:23:21.722Z,62.30
2018-03-20T23:25:50.001Z,62.66
2018-03-20T23:28:18.203Z,61.95
2018-03-20T23:30:46.403Z,62.38
2018-03-20T23:33:14.678Z,63.40
2018-03-20T23:35:42.918Z,64.09
2018-03-20T23:38:12.124Z,64.47
2018-03-20T23:43:31.211Z,64.23
2018-03-20T23:45:59.375Z,64.68
2018-03-20T23:48:27.599Z,64.30
2018-03-20T23:50:55.744Z,64.90
2018-03-20T23:53:24.078Z,64.91
2018-03-20T23:55:52.460Z,64.81
2018-03-20T23:58:20.846Z,64.70
